createdAt,value
2023-03-10T00:00:47.644Z,13.22
2023-03-10T00:03:14.451Z,13.22
2023-03-10T00:05:41.292Z,13.20
2023-03-10T00:08:07.974Z,13.19
2023-03-10T00:10:34.955Z,13.18
2023-03-10T00:13:01.833Z,13.17
2023-03-10T00:15:28.730Z,13.17
2023-03-10T00:17:55.877Z,13.16
2023-03-10T00:20:23.767Z,13.12
2023-03-10T00:22:50.611Z,13.13
2023-03-10T00:25:17.625Z,13.12
2023-03-10T00:27:44.451Z,13.14
2023-03-10T00:30:12.001Z,13.11
2023-03-10T00:32:38.813Z,13.10
2023-03-10T00:35:06.574Z,13.10
2023-03-10T00:37:36.761Z,13.12
2023-03-10T00:40:05.470Z,13.12
2023-03-10T00:42:32.174Z,13.09
2023-03-10T00:44:58.904Z,13.11
2023-03-10T00:47:25.663Z,13.10
2023-03-10T00:49:52.693Z,13.06
2023-03-10T00:52:19.542Z,13.08
2023-03-10T00:54:46.415Z,13.08
2023-03-10T00:57:13.137Z,13.07
2023-03-10T00:59:50.053Z,13.07
2023-03-10T01:02:18.922Z,13.06
2023-03-10T01:04:46.124Z,13.06
2023-03-10T01:07:12.897Z,13.03
2023-03-10T01:09:39.634Z,13.04
2023-03-10T01:12:06.933Z,13.03
2023-03-10T01:14:33.587Z,13.00
2023-03-10T01:17:00.464Z,13.03
2023-03-10T01:19:27.149Z,13.03
2023-03-10T01:21:53.815Z,13.01
2023-03-10T01:24:20.562Z,13.02
2023-03-10T01:26:47.336Z,13.01
2023-03-10T01:29:13.991Z,13.01
2023-03-10T01:31:42.091Z,13.00
2023-03-10T01:34:09.163Z,12.98
2023-03-10T01:36:36.257Z,12.99
2023-03-10T01:39:02.993Z,12.99
2023-03-10T01:41:29.846Z,12.95
2023-03-10T01:43:58.596Z,12.96
2023-03-10T01:46:34.249Z,12.94
2023-03-10T01:49:11.933Z,12.93
2023-03-10T01:51:41.375Z,12.95
2023-03-10T01:54:14.768Z,12.94
2023-03-10T01:56:42.430Z,12.93
2023-03-10T01:59:10.185Z,12.93
2023-03-10T02:01:37.490Z,12.93
2023-03-10T02:04:23.504Z,12.93
2023-03-10T02:06:52.229Z,12.92
2023-03-10T02:09:21.068Z,12.93
2023-03-10T02:11:49.464Z,12.90
2023-03-10T02:14:17.796Z,12.89
2023-03-10T02:16:45.126Z,12.87
2023-03-10T02:19:31.232Z,12.88
2023-03-10T02:22:05.294Z,12.87
2023-03-10T02:24:47.300Z,12.85
2023-03-10T02:27:24.727Z,12.84
2023-03-10T02:30:06.845Z,12.85
2023-03-10T02:32:39.887Z,12.85
2023-03-10T02:35:07.032Z,12.84
2023-03-10T02:37:39.411Z,12.82
2023-03-10T02:40:42.518Z,12.84
2023-03-10T02:43:30.633Z,12.82
2023-03-10T02:46:18.626Z,12.83
2023-03-10T02:48:46.296Z,12.81
2023-03-10T02:51:26.261Z,12.81
2023-03-10T02:53:54.507Z,12.81
2023-03-10T02:56:22.842Z,12.79
2023-03-10T02:58:50.442Z,12.81
2023-03-10T03:01:17.166Z,12.79
2023-03-10T03:03:44.322Z,12.79
2023-03-10T03:06:12.810Z,12.78
2023-03-10T03:08:39.773Z,12.79
2023-03-10T03:11:09.026Z,12.78
2023-03-10T03:13:36.238Z,12.78
2023-03-10T03:16:06.622Z,12.77
2023-03-10T03:18:33.622Z,12.74
2023-03-10T03:21:08.597Z,12.74
2023-03-10T03:23:35.372Z,12.73
2023-03-10T03:26:02.577Z,12.74
2023-03-10T03:28:32.321Z,12.74
2023-03-10T03:30:59.349Z,12.73
2023-03-10T03:33:26.314Z,12.72
2023-03-10T03:35:53.585Z,12.72
2023-03-10T03:38:21.113Z,12.73
2023-03-10T03:40:48.574Z,12.71
2023-03-10T03:43:17.859Z,12.72
2023-03-10T03:45:46.808Z,12.71
2023-03-10T03:48:14.784Z,12.70
2023-03-10T03:50:42.351Z,12.70
2023-03-10T03:53:18.986Z,12.68
2023-03-10T03:55:45.918Z,12.69
2023-03-10T03:58:12.697Z,12.68
2023-03-10T04:00:40.189Z,12.67
2023-03-10T04:03:09.623Z,12.68
2023-03-10T04:05:37.450Z,12.68
2023-03-10T04:08:05.404Z,12.64
2023-03-10T04:10:32.223Z,12.67
2023-03-10T04:13:00.475Z,12.64
2023-03-10T04:15:27.857Z,12.66
2023-03-10T04:17:54.775Z,12.67
2023-03-10T04:20:21.651Z,12.67
2023-03-10T04:22:51.861Z,12.67
2023-03-10T04:25:22.216Z,12.64
2023-03-10T04:27:49.876Z,12.64
2023-03-10T04:30:17.506Z,12.66
2023-03-10T04:32:49.330Z,12.64
2023-03-10T04:35:17.705Z,12.63
2023-03-10T04:37:44.951Z,12.63
2023-03-10T04:40:13.870Z,12.62
2023-03-10T04:42:42.187Z,12.62
2023-03-10T04:45:10.083Z,12.62
2023-03-10T04:47:55.150Z,12.61
2023-03-10T04:50:21.927Z,12.60
2023-03-10T04:52:50.225Z,12.60
2023-03-10T04:55:19.387Z,12.60
2023-03-10T04:57:46.315Z,12.59
2023-03-10T05:00:13.565Z,12.60
2023-03-10T05:02:41.422Z,12.61
2023-03-10T05:05:09.477Z,12.61
2023-03-10T05:07:39.392Z,12.61
2023-03-10T05:10:07.269Z,12.60
2023-03-10T05:12:35.329Z,12.59
2023-03-10T05:15:02.095Z,12.59
2023-03-10T05:17:29.480Z,12.61
2023-03-10T05:19:59.541Z,12.60
2023-03-10T05:22:26.473Z,12.57
2023-03-10T05:24:53.241Z,12.57
2023-03-10T05:27:22.000Z,12.58
2023-03-10T05:29:49.484Z,12.57
2023-03-10T05:32:20.675Z,12.58
2023-03-10T05:34:48.467Z,12.58
2023-03-10T05:37:15.722Z,12.58
2023-03-10T05:39:43.894Z,12.59
2023-03-10T05:42:15.613Z,12.56
2023-03-10T05:44:42.802Z,12.56
2023-03-10T05:47:10.420Z,12.56
2023-03-10T05:49:38.713Z,12.58
2023-03-10T05:52:07.132Z,12.56
2023-03-10T05:54:34.176Z,12.56
2023-03-10T05:57:00.922Z,12.54
2023-03-10T05:59:29.241Z,12.56
2023-03-10T06:01:56.036Z,12.56
2023-03-10T06:04:22.946Z,12.55
2023-03-10T06:06:49.704Z,12.54
2023-03-10T06:09:16.534Z,12.62
2023-03-10T06:11:43.433Z,12.64
2023-03-10T06:14:10.177Z,12.62
2023-03-10T06:16:37.050Z,12.60
2023-03-10T06:19:03.662Z,12.56
2023-03-10T06:21:30.809Z,12.54
2023-03-10T06:23:57.753Z,12.53
2023-03-10T06:26:24.703Z,12.51
2023-03-10T06:29:09.989Z,12.52
2023-03-10T06:31:36.638Z,12.54
2023-03-10T06:34:04.622Z,12.54
2023-03-10T06:36:32.586Z,12.52
2023-03-10T06:38:59.512Z,12.52
2023-03-10T06:41:27.957Z,12.49
2023-03-10T06:43:55.108Z,12.48
2023-03-10T06:46:21.929Z,12.48
2023-03-10T06:48:49.934Z,12.47
2023-03-10T06:51:19.117Z,12.47
2023-03-10T06:53:47.205Z,12.47
2023-03-10T06:56:17.393Z,12.45
2023-03-10T06:58:45.200Z,12.45
2023-03-10T07:01:25.550Z,12.45
2023-03-10T07:03:53.758Z,12.43
2023-03-10T07:06:21.132Z,12.44
2023-03-10T07:08:48.195Z,12.43
2023-03-10T07:11:15.999Z,12.43
2023-03-10T07:13:42.836Z,12.43
2023-03-10T07:16:09.679Z,12.41
2023-03-10T07:18:36.328Z,12.42
2023-03-10T07:21:09.758Z,12.41
2023-03-10T07:23:39.688Z,12.40
2023-03-10T07:26:15.651Z,12.42
2023-03-10T07:28:42.769Z,12.41
2023-03-10T07:31:12.613Z,12.41
2023-03-10T07:33:39.928Z,12.42
2023-03-10T07:36:09.434Z,12.40
2023-03-10T07:38:36.168Z,12.40
2023-03-10T07:41:10.220Z,12.39
2023-03-10T07:43:37.531Z,12.40
2023-03-10T07:46:09.323Z,12.39
2023-03-10T07:48:54.914Z,12.40
2023-03-10T07:51:21.931Z,12.40
2023-03-10T07:53:48.801Z,12.40
2023-03-10T07:56:15.939Z,12.40
2023-03-10T07:58:42.718Z,12.39
2023-03-10T08:01:15.111Z,12.40
2023-03-10T08:03:41.876Z,12.40
2023-03-10T08:06:08.910Z,12.40
2023-03-10T08:08:35.731Z,12.38
2023-03-10T08:11:05.063Z,12.44
2023-03-10T08:13:32.323Z,12.80
2023-03-10T08:16:01.178Z,13.00
2023-03-10T08:18:29.615Z,13.09
2023-03-10T08:21:06.920Z,13.20
2023-03-10T08:23:34.636Z,13.28
2023-03-10T08:26:03.159Z,13.35
2023-03-10T08:28:30.758Z,13.43
2023-03-10T08:31:04.755Z,13.51
2023-03-10T08:33:33.245Z,13.72
2023-03-10T08:36:12.709Z,13.91
2023-03-10T08:38:40.288Z,13.90
2023-03-10T08:41:20.846Z,13.87
2023-03-10T08:43:49.378Z,13.88
2023-03-10T08:46:17.118Z,13.84
2023-03-10T08:48:44.012Z,13.91
2023-03-10T08:51:14.452Z,14.01
2023-03-10T08:53:43.795Z,14.06
2023-03-10T08:56:10.490Z,14.15
2023-03-10T08:58:37.173Z,14.38
2023-03-10T09:01:04.419Z,14.56
2023-03-10T09:03:31.998Z,14.62
2023-03-10T09:05:59.001Z,14.65
2023-03-10T09:08:27.548Z,14.64
2023-03-10T09:10:54.974Z,14.71
2023-03-10T09:13:22.279Z,14.75
2023-03-10T09:15:50.581Z,14.72
2023-03-10T09:18:17.530Z,14.74
2023-03-10T09:20:45.371Z,14.78
2023-03-10T09:23:14.086Z,14.82
2023-03-10T09:25:41.271Z,14.78
2023-03-10T09:28:09.705Z,14.82
2023-03-10T09:30:38.326Z,14.81
2023-03-10T09:33:07.677Z,14.82
2023-03-10T09:35:35.949Z,14.91
2023-03-10T09:38:04.131Z,14.89
2023-03-10T09:40:32.890Z,14.87
2023-03-10T09:43:07.325Z,14.87
2023-03-10T09:45:53.254Z,14.85
2023-03-10T09:48:25.961Z,14.89
2023-03-10T09:50:56.511Z,14.91
2023-03-10T09:53:43.117Z,14.96
2023-03-10T09:56:18.917Z,14.91
2023-03-10T09:58:48.277Z,14.94
2023-03-10T10:01:18.586Z,14.97
2023-03-10T10:03:54.132Z,15.01
2023-03-10T10:06:32.503Z,15.04
2023-03-10T10:09:05.339Z,15.02
2023-03-10T10:11:33.331Z,15.02
2023-03-10T10:14:31.314Z,15.05
2023-03-10T10:17:09.072Z,15.04
2023-03-10T10:19:39.490Z,15.09
2023-03-10T10:22:27.383Z,15.10
2023-03-10T10:25:08.993Z,15.14
2023-03-10T10:27:40.741Z,15.14
2023-03-10T10:30:46.305Z,15.18
2023-03-10T10:33:15.051Z,15.17
2023-03-10T10:36:02.515Z,15.21
2023-03-10T10:38:31.047Z,15.17
2023-03-10T10:41:07.674Z,15.22
2023-03-10T10:43:43.513Z,15.20
2023-03-10T10:46:12.458Z,15.24
2023-03-10T10:49:02.429Z,15.22
2023-03-10T10:51:35.994Z,15.30
2023-03-10T10:54:21.847Z,15.33
2023-03-10T10:56:53.548Z,15.30
2023-03-10T10:59:22.794Z,15.35
2023-03-10T11:02:04.366Z,15.38
2023-03-10T11:04:46.465Z,15.39
2023-03-10T11:07:23.989Z,15.44
2023-03-10T11:09:51.124Z,15.47
2023-03-10T11:12:22.077Z,15.49
2023-03-10T11:14:49.810Z,15.53
2023-03-10T11:17:20.585Z,15.55
2023-03-10T11:19:50.321Z,15.65
2023-03-10T11:22:26.486Z,15.74
2023-03-10T11:25:10.675Z,15.79
2023-03-10T11:27:42.989Z,15.83
2023-03-10T11:30:13.494Z,15.86
2023-03-10T11:32:49.086Z,15.85
2023-03-10T11:35:24.332Z,15.91
2023-03-10T11:38:00.607Z,15.96
2023-03-10T11:40:48.079Z,15.91
2023-03-10T11:43:27.719Z,15.87
2023-03-10T11:45:56.726Z,15.86
2023-03-10T11:48:47.881Z,15.82
2023-03-10T11:51:34.849Z,15.82
2023-03-10T11:54:05.507Z,15.86
2023-03-10T11:56:32.222Z,15.86
2023-03-10T11:59:04.126Z,15.92
2023-03-10T12:01:38.369Z,16.01
2023-03-10T12:04:13.808Z,16.00
2023-03-10T12:06:54.980Z,16.00
2023-03-10T12:09:50.746Z,15.96
2023-03-10T12:12:26.788Z,15.98
2023-03-10T12:14:55.178Z,16.04
2023-03-10T12:17:23.896Z,15.98
2023-03-10T12:20:16.868Z,15.94
2023-03-10T12:22:53.390Z,15.98
2023-03-10T12:25:29.563Z,15.93
2023-03-10T12:28:17.376Z,15.90
2023-03-10T12:30:48.758Z,15.90
2023-03-10T12:33:30.673Z,15.83
2023-03-10T12:36:03.424Z,15.77
2023-03-10T12:38:42.907Z,15.83
2023-03-10T12:41:10.138Z,15.85
2023-03-10T12:43:48.860Z,15.76
2023-03-10T12:46:44.175Z,15.67
2023-03-10T12:49:33.481Z,15.73
2023-03-10T12:52:22.502Z,15.82
2023-03-10T12:55:21.996Z,15.79
2023-03-10T12:57:51.681Z,15.79
2023-03-10T13:00:36.511Z,15.84
2023-03-10T13:03:30.563Z,15.75
2023-03-10T13:06:07.039Z,15.77
2023-03-10T13:08:39.501Z,15.72
2023-03-10T13:11:48.938Z,15.72
2023-03-10T13:14:20.016Z,15.70
2023-03-10T13:16:58.024Z,15.68
2023-03-10T13:19:30.904Z,15.67
2023-03-10T13:21:58.292Z,15.63
2023-03-10T13:24:29.574Z,15.63
2023-03-10T13:27:06.778Z,15.63
2023-03-10T13:29:34.130Z,15.64
2023-03-10T13:32:00.885Z,15.58
2023-03-10T13:34:30.081Z,15.56
2023-03-10T13:37:08.106Z,15.61
2023-03-10T13:39:34.766Z,15.57
2023-03-10T13:42:03.593Z,15.52
2023-03-10T13:44:38.826Z,15.54
2023-03-10T13:47:14.094Z,15.57
2023-03-10T13:49:45.451Z,15.53
2023-03-10T13:52:19.463Z,15.55
2023-03-10T13:54:46.227Z,15.58
2023-03-10T13:57:32.890Z,15.63
2023-03-10T14:00:00.904Z,15.53
2023-03-10T14:02:37.354Z,15.52
2023-03-10T14:05:06.901Z,15.57
2023-03-10T14:07:37.529Z,15.57
2023-03-10T14:10:08.821Z,15.53
2023-03-10T14:12:43.441Z,15.60
2023-03-10T14:15:19.380Z,15.55
2023-03-10T14:18:06.320Z,15.75
2023-03-10T14:20:46.891Z,15.84
2023-03-10T14:23:19.662Z,15.86
2023-03-10T14:25:52.890Z,15.74
2023-03-10T14:28:25.051Z,15.74
2023-03-10T14:30:52.192Z,15.72
2023-03-10T14:33:19.541Z,15.66
2023-03-10T14:35:47.117Z,15.68
2023-03-10T14:38:14.108Z,15.69
2023-03-10T14:40:46.163Z,15.67
2023-03-10T14:43:27.325Z,15.68
2023-03-10T14:45:56.572Z,15.59
2023-03-10T14:48:25.215Z,15.65
2023-03-10T14:50:53.395Z,15.65
2023-03-10T14:53:24.679Z,15.58
2023-03-10T14:55:54.579Z,15.58
2023-03-10T14:58:24.925Z,15.60
2023-03-10T15:00:52.148Z,15.58
2023-03-10T15:03:18.875Z,15.50
2023-03-10T15:05:49.151Z,15.51
2023-03-10T15:08:17.217Z,15.52
2023-03-10T15:10:48.586Z,15.65
2023-03-10T15:13:18.242Z,15.61
2023-03-10T15:15:47.137Z,15.59
2023-03-10T15:18:17.275Z,15.59
2023-03-10T15:20:44.407Z,15.55
2023-03-10T15:23:14.577Z,15.59
2023-03-10T15:25:43.712Z,15.61
2023-03-10T15:28:12.048Z,15.68
2023-03-10T15:30:38.704Z,15.62
2023-03-10T15:33:05.559Z,15.64
2023-03-10T15:35:32.658Z,15.64
2023-03-10T15:37:59.409Z,15.64
2023-03-10T15:40:28.761Z,15.66
2023-03-10T15:42:59.828Z,15.59
2023-03-10T15:45:28.899Z,15.67
2023-03-10T15:47:56.525Z,15.66
2023-03-10T15:50:23.645Z,15.63
2023-03-10T15:52:53.559Z,15.65
2023-03-10T15:55:20.388Z,15.66
2023-03-10T15:57:50.222Z,15.66
2023-03-10T16:00:19.078Z,15.61
2023-03-10T16:02:47.055Z,15.53
2023-03-10T16:05:14.596Z,15.62
2023-03-10T16:07:41.579Z,15.68
2023-03-10T16:10:17.661Z,15.73
2023-03-10T16:12:44.774Z,15.82
2023-03-10T16:15:12.923Z,15.88
2023-03-10T16:17:40.269Z,15.81
2023-03-10T16:20:12.145Z,15.75
2023-03-10T16:22:41.093Z,15.74
2023-03-10T16:25:12.381Z,15.78
2023-03-10T16:27:39.036Z,15.78
2023-03-10T16:30:06.693Z,15.76
2023-03-10T16:32:33.843Z,15.78
2023-03-10T16:35:00.766Z,15.71
2023-03-10T16:37:28.931Z,15.70
2023-03-10T16:39:56.480Z,15.70
2023-03-10T16:42:24.288Z,15.66
2023-03-10T16:45:06.112Z,15.69
2023-03-10T16:47:33.410Z,15.66
2023-03-10T16:50:00.318Z,15.73
2023-03-10T16:52:27.084Z,15.68
2023-03-10T16:54:58.794Z,15.72
2023-03-10T16:57:25.567Z,15.79
2023-03-10T16:59:52.162Z,15.86
2023-03-10T17:02:18.913Z,15.95
2023-03-10T17:04:45.942Z,15.92
2023-03-10T17:07:12.623Z,15.80
2023-03-10T17:09:39.332Z,15.82
2023-03-10T17:12:07.030Z,15.83
2023-03-10T17:14:33.783Z,15.80
2023-03-10T17:17:01.482Z,15.79
2023-03-10T17:19:31.040Z,15.76
2023-03-10T17:21:58.323Z,15.80
2023-03-10T17:24:26.232Z,15.93
2023-03-10T17:26:53.852Z,15.98
2023-03-10T17:29:20.969Z,15.99
2023-03-10T17:31:50.418Z,16.01
2023-03-10T17:34:18.841Z,16.09
2023-03-10T17:36:46.686Z,16.10
2023-03-10T17:39:19.544Z,16.03
2023-03-10T17:41:46.817Z,16.11
2023-03-10T17:44:13.971Z,16.07
2023-03-10T17:46:41.866Z,15.99
2023-03-10T17:49:11.489Z,16.00
2023-03-10T17:51:39.623Z,15.99
2023-03-10T17:54:07.436Z,15.93
2023-03-10T17:56:34.304Z,15.92
2023-03-10T17:59:00.993Z,15.92
2023-03-10T18:01:29.473Z,15.90
2023-03-10T18:03:57.697Z,15.84
2023-03-10T18:06:30.459Z,15.84
2023-03-10T18:08:58.974Z,15.81
2023-03-10T18:11:27.138Z,15.82
2023-03-10T18:13:54.274Z,15.75
2023-03-10T18:16:24.852Z,15.71
2023-03-10T18:18:52.344Z,15.75
2023-03-10T18:21:20.183Z,15.74
2023-03-10T18:23:48.045Z,15.73
2023-03-10T18:26:18.300Z,15.70
2023-03-10T18:28:45.459Z,15.69
2023-03-10T18:31:30.450Z,15.74
2023-03-10T18:33:57.678Z,15.69
2023-03-10T18:36:25.283Z,15.70
2023-03-10T18:38:53.090Z,15.73
2023-03-10T18:41:24.479Z,15.72
2023-03-10T18:43:52.229Z,15.69
2023-03-10T18:46:19.671Z,15.71
2023-03-10T18:48:46.407Z,15.72
2023-03-10T18:51:13.729Z,15.72
2023-03-10T18:53:40.739Z,15.69
2023-03-10T18:56:08.013Z,15.67
2023-03-10T18:58:35.205Z,15.64
2023-03-10T19:01:02.132Z,15.63
2023-03-10T19:03:30.131Z,15.62
2023-03-10T19:05:57.689Z,15.61
2023-03-10T19:08:27.029Z,15.61
2023-03-10T19:10:58.868Z,15.57
2023-03-10T19:13:27.549Z,15.57
2023-03-10T19:15:55.068Z,15.58
2023-03-10T19:18:22.766Z,15.52
2023-03-10T19:20:50.879Z,15.54
2023-03-10T19:23:18.105Z,15.57
2023-03-10T19:25:44.919Z,15.57
2023-03-10T19:28:11.751Z,15.57
2023-03-10T19:30:42.644Z,15.57
2023-03-10T19:33:10.892Z,15.52
2023-03-10T19:35:38.431Z,15.57
2023-03-10T19:38:06.065Z,15.52
2023-03-10T19:40:33.374Z,15.57
2023-03-10T19:43:17.833Z,15.52
2023-03-10T19:45:44.529Z,15.51
2023-03-10T19:48:11.131Z,15.48
2023-03-10T19:50:37.762Z,15.48
2023-03-10T19:53:04.610Z,15.48
2023-03-10T19:55:31.273Z,15.48
2023-03-10T19:57:57.912Z,15.48
2023-03-10T20:00:30.995Z,15.48
2023-03-10T20:02:58.696Z,15.43
2023-03-10T20:05:26.864Z,15.44
2023-03-10T20:07:53.758Z,15.44
2023-03-10T20:10:20.495Z,15.45
2023-03-10T20:12:48.502Z,15.48
2023-03-10T20:15:15.678Z,15.45
2023-03-10T20:17:42.524Z,15.43
2023-03-10T20:20:11.452Z,15.40
2023-03-10T20:22:41.040Z,15.46
2023-03-10T20:25:09.417Z,15.39
2023-03-10T20:27:37.056Z,15.43
2023-03-10T20:30:16.013Z,15.40
2023-03-10T20:32:43.081Z,15.38
2023-03-10T20:35:10.623Z,15.35
2023-03-10T20:37:38.654Z,15.30
2023-03-10T20:40:06.682Z,15.29
2023-03-10T20:42:34.059Z,15.27
2023-03-10T20:45:01.003Z,15.20
2023-03-10T20:47:27.989Z,15.14
2023-03-10T20:49:55.533Z,15.15
2023-03-10T20:52:22.348Z,15.15
2023-03-10T20:54:49.449Z,15.16
2023-03-10T20:57:16.352Z,15.39
2023-03-10T20:59:43.101Z,15.47
2023-03-10T21:02:15.379Z,15.56
2023-03-10T21:04:42.374Z,15.54
2023-03-10T21:07:09.981Z,15.57
2023-03-10T21:09:36.800Z,15.61
2023-03-10T21:12:03.707Z,15.49
2023-03-10T21:14:30.568Z,15.48
2023-03-10T21:16:59.901Z,15.38
2023-03-10T21:19:27.898Z,15.45
2023-03-10T21:21:54.995Z,15.28
2023-03-10T21:24:22.193Z,15.15
2023-03-10T21:26:49.992Z,15.11
2023-03-10T21:29:16.595Z,15.02
2023-03-10T21:31:43.328Z,14.96
2023-03-10T21:34:09.968Z,14.89
2023-03-10T21:36:36.614Z,14.80
2023-03-10T21:39:03.622Z,14.78
2023-03-10T21:41:30.636Z,14.75
2023-03-10T21:43:59.745Z,14.70
2023-03-10T21:46:27.033Z,14.72
2023-03-10T21:48:54.632Z,14.53
2023-03-10T21:51:23.238Z,14.55
2023-03-10T21:53:51.095Z,14.45
2023-03-10T21:56:18.076Z,14.43
2023-03-10T21:58:45.968Z,14.33
2023-03-10T22:01:14.873Z,14.34
2023-03-10T22:03:43.000Z,14.23
2023-03-10T22:06:10.412Z,14.21
2023-03-10T22:08:37.832Z,14.13
2023-03-10T22:11:07.126Z,14.16
2023-03-10T22:13:38.318Z,14.09
2023-03-10T22:16:07.009Z,14.10
2023-03-10T22:18:34.143Z,14.01
2023-03-10T22:21:01.062Z,13.97
2023-03-10T22:23:28.096Z,14.01
2023-03-10T22:25:55.495Z,13.93
2023-03-10T22:28:22.322Z,13.89
2023-03-10T22:30:49.045Z,13.88
2023-03-10T22:33:15.730Z,13.84
2023-03-10T22:35:44.597Z,13.79
2023-03-10T22:38:11.334Z,13.76
2023-03-10T22:40:38.117Z,13.74
2023-03-10T22:43:05.007Z,13.73
2023-03-10T22:45:33.422Z,13.72
2023-03-10T22:48:03.638Z,13.70
2023-03-10T22:50:43.509Z,13.63
2023-03-10T22:53:17.008Z,13.62
2023-03-10T22:55:44.041Z,13.57
2023-03-10T22:58:11.197Z,13.62
2023-03-10T23:00:39.663Z,13.56
2023-03-10T23:03:07.521Z,13.52
2023-03-10T23:05:34.498Z,13.48
2023-03-10T23:08:01.483Z,13.48
2023-03-10T23:10:31.369Z,13.45
2023-03-10T23:13:00.761Z,13.45
2023-03-10T23:15:30.674Z,13.37
2023-03-10T23:17:57.881Z,13.38
2023-03-10T23:20:27.859Z,13.36
2023-03-10T23:22:57.080Z,13.29
2023-03-10T23:25:28.804Z,13.31
2023-03-10T23:27:56.246Z,13.25
2023-03-10T23:30:23.112Z,13.22
2023-03-10T23:32:51.297Z,13.22
2023-03-10T23:35:21.268Z,13.13
2023-03-10T23:37:47.989Z,13.11
2023-03-10T23:40:17.052Z,13.11
2023-03-10T23:42:44.374Z,13.06
2023-03-10T23:45:15.177Z,13.00
2023-03-10T23:47:42.475Z,12.95
2023-03-10T23:50:17.064Z,12.91
2023-03-10T23:52:44.629Z,12.92
2023-03-10T23:55:14.830Z,12.90
2023-03-10T23:57:41.824Z,12.83
